Time;durP1;ratioP1;P1;durP2;ratioP2;P2;SDS_P1;SDS_P2;PMS_P1;PMS_P2;Temp;Humidity;BMP_temperature;BMP_pressure;BME280_temperature;BME280_humidity;BME280_pressure;Samples;Min_cycle;Max_cycle;Signal;HPM_P1;HPM_P2
2020/12/05 00:01:19;;;;;;;90.90;24.77;;;2.10;1.00;;;;;;5072324;28;20209;-74
2020/12/05 00:03:46;;;;;;;89.63;26.48;;;2.10;1.00;;;;;;5071971;28;20208;-74
2020/12/05 00:06:12;;;;;;;95.10;26.20;;;2.10;1.00;;;;;;5072097;28;20663;-74
2020/12/05 00:08:38;;;;;;;85.80;22.60;;;2.10;1.00;;;;;;5071773;28;20225;-74
2020/12/05 00:11:05;;;;;;;91.03;25.08;;;2.10;1.00;;;;;;5072021;28;20540;-74
2020/12/05 00:13:31;;;;;;;90.25;22.92;;;2.10;1.00;;;;;;5071721;28;20205;-73
2020/12/05 00:15:57;;;;;;;90.90;24.90;;;2.10;1.00;;;;;;5071769;28;20316;-74
2020/12/05 00:18:24;;;;;;;91.85;26.30;;;2.20;1.00;;;;;;5071682;28;20288;-74
2020/12/05 00:20:51;;;;;;;93.97;26.27;;;2.20;1.00;;;;;;5072014;28;20300;-74
2020/12/05 00:23:17;;;;;;;92.22;26.73;;;2.20;1.00;;;;;;5071623;28;20315;-74
2020/12/05 00:25:44;;;;;;;87.88;24.70;;;2.20;1.00;;;;;;5071773;28;20300;-74
2020/12/05 00:28:10;;;;;;;94.25;25.88;;;2.20;1.00;;;;;;5071149;28;20235;-74
2020/12/05 00:30:36;;;;;;;87.07;25.02;;;2.20;1.00;;;;;;5071438;28;20205;-74
2020/12/05 00:33:04;;;;;;;96.63;28.13;;;2.20;1.00;;;;;;5071752;28;20751;-74
2020/12/05 00:35:30;;;;;;;94.00;25.90;;;2.20;1.00;;;;;;5071516;28;20274;-74
2020/12/05 00:37:57;;;;;;;93.18;25.85;;;2.20;1.00;;;;;;5071361;28;20204;-74
2020/12/05 00:40:24;;;;;;;85.15;23.92;;;2.20;1.00;;;;;;5071357;28;20335;-74
2020/12/05 00:42:50;;;;;;;96.75;24.58;;;2.20;1.00;;;;;;5071808;28;20209;-74
2020/12/05 00:45:17;;;;;;;90.13;25.88;;;2.30;1.00;;;;;;5071365;28;20229;-74
2020/12/05 00:47:43;;;;;;;90.57;26.63;;;2.30;1.00;;;;;;5071028;28;20224;-74
2020/12/05 00:50:10;;;;;;;87.75;23.92;;;2.30;1.00;;;;;;5070958;28;20204;-74
2020/12/05 00:52:36;;;;;;;91.13;25.95;;;2.30;1.00;;;;;;5070958;28;20201;-74
2020/12/05 00:55:03;;;;;;;85.68;22.60;;;2.30;1.00;;;;;;5071207;28;20231;-74
2020/12/05 00:57:29;;;;;;;89.85;24.48;;;2.30;1.00;;;;;;5070997;28;20207;-74
2020/12/05 00:59:56;;;;;;;96.50;25.33;;;2.30;1.00;;;;;;5071102;28;20209;-74
2020/12/05 01:02:23;;;;;;;85.88;23.55;;;2.30;1.00;;;;;;5070910;28;20209;-74
2020/12/05 01:04:50;;;;;;;89.25;26.00;;;2.30;1.00;;;;;;5071206;28;20312;-74
2020/12/05 01:07:21;;;;;;;88.78;23.70;;;2.30;1.00;;;;;;5070882;28;20229;-74
2020/12/05 01:09:48;;;;;;;94.63;25.95;;;2.30;1.00;;;;;;5070467;28;20672;-74
2020/12/05 01:12:15;;;;;;;93.97;25.50;;;2.30;1.00;;;;;;5070907;28;20216;-74
2020/12/05 01:14:41;;;;;;;89.30;24.10;;;2.40;1.00;;;;;;5070851;28;20228;-74
2020/12/05 01:17:08;;;;;;;88.57;22.55;;;2.40;1.00;;;;;;5071105;28;20279;-74
2020/12/05 01:19:34;;;;;;;89.00;25.40;;;2.40;1.00;;;;;;5070511;28;20676;-74
2020/12/05 01:22:01;;;;;;;87.65;23.75;;;2.40;1.00;;;;;;5070878;28;20222;-74
2020/12/05 01:24:27;;;;;;;93.28;24.13;;;2.40;1.00;;;;;;5073244;28;20741;-74
2020/12/05 01:26:53;;;;;;;87.10;23.85;;;2.40;1.00;;;;;;5074887;28;20205;-74
2020/12/05 01:29:21;;;;;;;86.45;23.33;;;2.40;1.00;;;;;;5074484;28;20216;-74
2020/12/05 01:31:48;;;;;;;88.20;22.98;;;2.50;1.00;;;;;;5074699;28;20211;-74
2020/12/05 01:34:14;;;;;;;92.28;22.80;;;2.50;1.00;;;;;;5074665;28;20201;-74
2020/12/05 01:36:43;;;;;;;90.45;24.52;;;2.50;1.00;;;;;;5074297;28;20229;-74
2020/12/05 01:39:10;;;;;;;91.50;22.95;;;2.50;1.00;;;;;;5074051;28;20557;-74
2020/12/05 01:41:36;;;;;;;93.63;24.13;;;2.50;1.00;;;;;;5074825;28;20205;-74
2020/12/05 01:44:02;;;;;;;93.40;22.70;;;2.60;1.00;;;;;;5074454;28;20205;-74
2020/12/05 01:46:37;;;;;;;84.95;21.90;;;2.60;1.00;;;;;;5074219;28;20228;-74
2020/12/05 01:49:05;;;;;;;89.15;23.08;;;2.60;1.00;;;;;;5074087;28;20224;-73
2020/12/05 01:51:31;;;;;;;88.00;22.85;;;2.70;1.00;;;;;;5074351;28;20205;-73
2020/12/05 01:53:59;;;;;;;84.90;21.27;;;2.70;1.00;;;;;;5074289;28;20201;-73
2020/12/05 01:56:26;;;;;;;88.25;21.20;;;2.70;1.00;;;;;;5073984;28;20766;-73
2020/12/05 01:58:53;;;;;;;82.82;20.25;;;2.70;1.00;;;;;;5073968;28;20668;-73
2020/12/05 02:01:25;;;;;;;88.20;23.50;;;2.70;1.00;;;;;;5073871;28;20205;-73
2020/12/05 02:03:54;;;;;;;87.78;21.35;;;2.70;1.00;;;;;;5073832;28;20209;-73
2020/12/05 02:06:46;;;;;;;87.55;22.17;;;2.70;1.00;;;;;;5073647;28;20225;-73
2020/12/05 02:09:15;;;;;;;85.75;21.52;;;2.70;1.00;;;;;;5073882;28;20205;-72
2020/12/05 02:11:48;;;;;;;91.65;22.30;;;2.60;1.00;;;;;;5073873;28;20227;-73
2020/12/05 02:14:18;;;;;;;86.82;21.95;;;2.60;1.00;;;;;;5074002;28;20300;-72
2020/12/05 02:16:46;;;;;;;84.80;22.70;;;2.50;1.00;;;;;;5074031;28;20232;-72
2020/12/05 02:19:19;;;;;;;87.13;22.45;;;2.50;1.00;;;;;;5073463;28;20236;-72
2020/12/05 02:21:48;;;;;;;85.95;21.25;;;2.40;1.00;;;;;;5073622;28;20553;-72
2020/12/05 02:24:15;;;;;;;86.20;22.13;;;2.40;1.00;;;;;;5073224;28;20300;-72
2020/12/05 02:26:43;;;;;;;89.35;24.10;;;2.40;1.00;;;;;;5073298;28;20237;-72
2020/12/05 02:29:10;;;;;;;89.40;23.42;;;2.40;1.00;;;;;;5072848;28;20251;-72
2020/12/05 02:31:38;;;;;;;90.30;23.40;;;2.30;1.00;;;;;;5069702;28;20291;-72
2020/12/05 02:34:05;;;;;;;87.88;24.15;;;2.30;1.00;;;;;;5073131;28;20260;-73
2020/12/05 02:36:37;;;;;;;88.78;23.50;;;2.30;1.00;;;;;;5073008;28;20697;-73
2020/12/05 02:39:06;;;;;;;85.00;22.90;;;2.30;1.00;;;;;;5072956;28;20205;-72
2020/12/05 02:41:37;;;;;;;97.22;26.70;;;2.30;1.00;;;;;;5073264;28;20592;-73
2020/12/05 02:44:03;;;;;;;90.03;25.65;;;2.20;1.00;;;;;;5073124;28;20291;-73
2020/12/05 02:46:30;;;;;;;93.40;24.25;;;2.20;1.00;;;;;;5073414;28;20316;-73
2020/12/05 02:48:56;;;;;;;90.15;24.77;;;2.10;1.00;;;;;;5073124;28;20232;-73
2020/12/05 02:51:23;;;;;;;90.97;25.20;;;2.10;1.00;;;;;;5073061;28;20229;-74
2020/12/05 02:53:49;;;;;;;92.78;24.10;;;2.00;1.00;;;;;;5073056;28;20270;-74
2020/12/05 02:56:17;;;;;;;91.25;24.80;;;1.90;1.00;;;;;;5072690;28;20251;-74
2020/12/05 02:58:44;;;;;;;92.43;24.90;;;1.80;1.00;;;;;;5072550;28;20553;-75
2020/12/05 03:01:11;;;;;;;93.20;25.33;;;1.70;1.00;;;;;;5073231;28;20204;-74
2020/12/05 03:03:37;;;;;;;94.15;26.00;;;1.60;1.00;;;;;;5073031;28;20205;-75
2020/12/05 03:06:04;;;;;;;92.80;25.88;;;1.60;1.00;;;;;;5072730;28;20224;-74
2020/12/05 03:08:30;;;;;;;90.47;25.95;;;1.50;1.00;;;;;;5072477;28;20225;-74
2020/12/05 03:10:56;;;;;;;92.90;25.27;;;1.40;1.00;;;;;;5072879;28;20209;-75
2020/12/05 03:13:23;;;;;;;94.05;26.85;;;1.40;1.00;;;;;;5072517;28;20201;-75
2020/12/05 03:15:50;;;;;;;92.13;26.00;;;1.40;1.00;;;;;;5072359;28;20719;-75
2020/12/05 03:18:18;;;;;;;91.45;26.02;;;1.30;1.00;;;;;;5072096;28;20209;-74
2020/12/05 03:20:44;;;;;;;93.25;27.15;;;1.30;1.00;;;;;;5072596;28;20220;-73
2020/12/05 03:23:10;;;;;;;89.38;25.60;;;1.20;1.00;;;;;;5072414;28;20201;-75
2020/12/05 03:25:37;;;;;;;92.57;27.67;;;1.20;1.00;;;;;;5072286;28;20247;-74
2020/12/05 03:28:03;;;;;;;90.32;27.00;;;1.20;1.00;;;;;;5072296;28;20229;-75
2020/12/05 03:30:29;;;;;;;92.53;24.95;;;1.20;1.00;;;;;;5071925;28;20240;-75
2020/12/05 03:32:57;;;;;;;92.00;26.33;;;1.20;1.00;;;;;;5071925;28;20212;-75
2020/12/05 03:35:26;;;;;;;93.50;26.15;;;1.20;1.00;;;;;;5072669;28;20339;-74
2020/12/05 03:37:52;;;;;;;92.55;26.42;;;1.20;1.00;;;;;;5072227;28;20216;-74
2020/12/05 03:40:19;;;;;;;91.70;24.15;;;1.10;1.00;;;;;;5071881;28;20205;-74
2020/12/05 03:42:45;;;;;;;98.03;25.15;;;1.10;1.00;;;;;;5071817;28;20589;-73
2020/12/05 03:45:11;;;;;;;94.30;26.17;;;1.10;1.00;;;;;;5071554;28;20796;-74
2020/12/05 03:47:38;;;;;;;97.97;25.92;;;1.10;1.00;;;;;;5071637;28;20233;-74
2020/12/05 03:50:06;;;;;;;99.18;29.20;;;1.00;1.00;;;;;;5071801;28;20227;-74
2020/12/05 03:52:33;;;;;;;97.85;29.58;;;1.00;1.00;;;;;;5071858;28;20216;-74
2020/12/05 03:54:59;;;;;;;98.43;30.80;;;1.00;1.00;;;;;;5071743;28;20228;-75
2020/12/05 03:57:25;;;;;;;96.53;28.60;;;1.00;1.00;;;;;;5071717;28;20301;-73
2020/12/05 03:59:52;;;;;;;101.47;28.40;;;1.00;1.00;;;;;;5071300;28;20205;-73
2020/12/05 04:02:18;;;;;;;98.50;28.10;;;1.00;1.00;;;;;;5071705;28;20292;-74
2020/12/05 04:04:44;;;;;;;90.63;27.58;;;1.00;1.00;;;;;;5071692;28;20229;-74
2020/12/05 04:07:12;;;;;;;100.70;28.92;;;1.00;1.00;;;;;;5071486;28;20261;-74
2020/12/05 04:09:38;;;;;;;103.85;27.30;;;1.00;1.00;;;;;;5071468;28;20209;-74
2020/12/05 04:12:05;;;;;;;92.10;27.20;;;1.00;1.00;;;;;;5071708;28;20710;-74
2020/12/05 04:14:31;;;;;;;97.68;26.15;;;1.10;1.00;;;;;;5071495;28;20292;-75
2020/12/05 04:16:57;;;;;;;96.43;27.95;;;1.10;1.00;;;;;;5071786;28;20217;-75
2020/12/05 04:19:24;;;;;;;93.35;27.60;;;1.10;1.90;;;;;;5071527;28;20656;-75
2020/12/05 04:21:50;;;;;;;95.97;26.92;;;1.10;2.80;;;;;;5071792;28;20694;-75
2020/12/05 04:24:17;;;;;;;98.45;26.75;;;1.10;4.40;;;;;;5071455;28;20292;-75
2020/12/05 04:26:44;;;;;;;93.85;27.50;;;1.10;5.90;;;;;;5071288;28;20654;-75
2020/12/05 04:29:10;;;;;;;96.60;27.48;;;1.10;7.60;;;;;;5071090;28;20560;-76
2020/12/05 04:31:36;;;;;;;94.68;26.30;;;1.10;9.00;;;;;;5071507;28;20595;-74
2020/12/05 04:34:03;;;;;;;99.00;25.90;;;1.10;9.90;;;;;;5071373;28;20205;-76
2020/12/05 04:36:29;;;;;;;94.93;25.92;;;1.10;11.70;;;;;;5071511;28;20239;-75
2020/12/05 04:38:55;;;;;;;89.25;23.02;;;1.10;12.70;;;;;;5071297;28;20201;-75
2020/12/05 04:41:24;;;;;;;96.88;28.23;;;1.10;14.60;;;;;;5071389;28;20688;-76
2020/12/05 04:43:50;;;;;;;98.72;29.00;;;1.10;16.70;;;;;;5071960;28;20208;-76
2020/12/05 04:46:17;;;;;;;98.13;27.48;;;1.10;20.00;;;;;;5071272;28;20307;-75
2020/12/05 04:48:44;;;;;;;97.50;26.90;;;1.10;23.20;;;;;;5070972;28;20631;-76
2020/12/05 04:51:16;;;;;;;96.70;28.25;;;1.10;26.70;;;;;;5071223;28;20234;-76
2020/12/05 04:53:46;;;;;;;96.97;27.02;;;1.20;29.50;;;;;;5071164;28;20213;-76
2020/12/05 04:56:14;;;;;;;96.15;28.25;;;1.20;31.80;;;;;;5070972;28;20237;-76
2020/12/05 04:58:47;;;;;;;95.60;26.98;;;1.20;34.70;;;;;;5073001;28;20617;-76
2020/12/05 05:01:18;;;;;;;95.18;25.63;;;1.20;36.70;;;;;;5074944;28;20209;-76
2020/12/05 05:03:45;;;;;;;101.50;29.27;;;1.20;37.90;;;;;;5074875;28;20205;-76
2020/12/05 05:06:19;;;;;;;91.63;25.55;;;1.20;39.60;;;;;;5074963;28;20224;-76
2020/12/05 05:08:46;;;;;;;96.05;28.15;;;1.20;39.80;;;;;;5074878;28;20285;-75
2020/12/05 05:11:16;;;;;;;87.18;22.50;;;1.20;40.70;;;;;;5075206;28;20227;-76
2020/12/05 05:13:51;;;;;;;98.30;28.33;;;1.20;42.20;;;;;;5074898;28;20240;-76
2020/12/05 05:16:18;;;;;;;94.13;25.15;;;1.20;43.00;;;;;;5074877;28;20596;-76
2020/12/05 05:18:44;;;;;;;89.15;25.77;;;1.20;43.50;;;;;;5074478;28;20205;-76
2020/12/05 05:21:33;;;;;;;89.07;23.58;;;1.20;45.10;;;;;;5074550;28;20258;-76
2020/12/05 05:24:02;;;;;;;93.20;24.83;;;1.20;46.30;;;;;;5074759;28;20213;-76
2020/12/05 05:26:29;;;;;;;89.80;23.67;;;1.20;46.50;;;;;;5074621;28;20792;-76
2020/12/05 05:28:56;;;;;;;81.72;20.75;;;1.20;48.40;;;;;;5074262;28;20231;-76
2020/12/05 05:31:28;;;;;;;91.00;23.42;;;1.20;48.20;;;;;;5074385;28;20295;-76
2020/12/05 05:33:55;;;;;;;90.72;23.90;;;1.20;49.20;;;;;;5074391;28;20668;-76
2020/12/05 05:36:23;;;;;;;85.95;23.67;;;1.20;49.10;;;;;;5074778;28;20256;-76
2020/12/05 05:38:57;;;;;;;85.55;22.55;;;1.20;49.80;;;;;;5074116;28;20515;-76
2020/12/05 05:41:25;;;;;;;88.50;23.77;;;1.20;51.30;;;;;;5074349;28;20212;-76
2020/12/05 05:43:57;;;;;;;82.47;22.55;;;1.20;51.50;;;;;;5074164;28;20262;-76
2020/12/05 05:46:26;;;;;;;97.60;27.90;;;1.20;52.40;;;;;;5074150;28;20247;-76
2020/12/05 05:48:52;;;;;;;96.63;27.55;;;1.30;54.30;;;;;;5073998;28;20236;-76
2020/12/05 05:51:39;;;;;;;98.47;25.17;;;1.20;54.40;;;;;;5074053;28;20215;-76
2020/12/05 05:54:27;;;;;;;93.55;25.83;;;1.20;54.90;;;;;;5074139;28;20296;-76
2020/12/05 05:56:55;;;;;;;90.38;25.17;;;1.30;55.60;;;;;;5074345;28;20209;-75
2020/12/05 05:59:23;;;;;;;99.40;26.08;;;1.30;56.40;;;;;;5074012;28;20205;-76
2020/12/05 06:01:50;;;;;;;91.68;25.63;;;1.30;57.90;;;;;;5074244;28;20580;-76
2020/12/05 06:04:24;;;;;;;94.25;25.15;;;1.30;59.20;;;;;;5074163;28;20205;-76
2020/12/05 06:06:51;;;;;;;95.50;26.10;;;1.30;59.20;;;;;;5073898;28;20329;-75
2020/12/05 06:09:24;;;;;;;91.50;24.77;;;1.30;60.20;;;;;;5073185;28;20228;-76
2020/12/05 06:11:53;;;;;;;95.88;25.42;;;1.30;60.40;;;;;;5073944;28;20270;-75
2020/12/05 06:14:22;;;;;;;96.82;25.50;;;1.30;61.10;;;;;;5074217;28;20291;-76
2020/12/05 06:16:54;;;;;;;96.10;25.60;;;1.30;61.10;;;;;;5073933;28;20296;-76
2020/12/05 06:19:22;;;;;;;93.30;24.27;;;1.40;61.40;;;;;;5074196;28;20292;-76
2020/12/05 06:21:50;;;;;;;87.55;23.42;;;1.30;62.20;;;;;;5074056;28;20256;-75
2020/12/05 06:24:45;;;;;;;94.13;23.42;;;1.30;62.00;;;;;;5074204;28;20695;-76
2020/12/05 06:27:14;;;;;;;90.78;21.65;;;1.30;62.00;;;;;;5080218;22;20282;-76
2020/12/05 06:29:42;;;;;;;88.50;22.80;;;1.30;62.40;;;;;;5072764;28;20236;-76
2020/12/05 06:32:09;;;;;;;90.15;22.92;;;1.30;63.40;;;;;;5073711;28;20615;-77
2020/12/05 06:34:40;;;;;;;93.82;24.90;;;1.30;63.10;;;;;;5073534;28;20219;-76
2020/12/05 06:37:08;;;;;;;88.95;22.52;;;1.30;63.20;;;;;;5073506;28;20232;-76
2020/12/05 06:39:34;;;;;;;93.68;24.67;;;1.30;63.10;;;;;;5073123;28;20205;-77
2020/12/05 06:42:00;;;;;;;96.88;25.98;;;1.30;63.70;;;;;;5073092;28;20215;-76
2020/12/05 06:44:36;;;;;;;94.60;24.27;;;1.30;64.00;;;;;;5072974;28;20201;-76
2020/12/05 06:47:05;;;;;;;102.68;26.05;;;1.30;64.00;;;;;;5073318;28;20599;-76
2020/12/05 06:49:49;;;;;;;99.10;26.70;;;1.30;64.50;;;;;;5072799;28;20228;-77
2020/12/05 06:52:41;;;;;;;93.13;24.00;;;1.30;64.40;;;;;;5073054;28;20219;-77
2020/12/05 06:55:28;;;;;;;97.63;24.08;;;1.30;64.80;;;;;;5073278;28;20296;-77
2020/12/05 06:58:01;;;;;;;98.68;25.95;;;1.30;65.00;;;;;;5073003;28;20225;-76
2020/12/05 07:00:32;;;;;;;95.18;25.83;;;1.30;65.20;;;;;;5072604;28;20205;-77
2020/12/05 07:03:01;;;;;;;92.97;25.67;;;1.30;65.40;;;;;;5073915;28;20283;-77
2020/12/05 07:05:35;;;;;;;88.75;22.60;;;1.30;65.60;;;;;;5072786;28;20649;-77
2020/12/05 07:08:18;;;;;;;94.75;24.27;;;1.30;65.90;;;;;;5072665;28;20316;-77
2020/12/05 07:10:47;;;;;;;95.28;26.00;;;1.30;65.80;;;;;;5072577;28;20208;-77
2020/12/05 07:13:15;;;;;;;88.25;22.50;;;1.30;65.70;;;;;;5072470;28;20299;-77
2020/12/05 07:15:41;;;;;;;95.10;24.45;;;1.30;65.70;;;;;;5073240;28;20209;-77
2020/12/05 07:18:10;;;;;;;95.80;25.35;;;1.30;66.50;;;;;;5073160;28;20217;-78
2020/12/05 07:20:36;;;;;;;90.25;23.77;;;1.30;65.90;;;;;;5072247;28;20250;-78
2020/12/05 07:23:03;;;;;;;91.97;23.20;;;1.30;66.40;;;;;;5077067;28;20382;-78
2020/12/05 07:25:30;;;;;;;92.95;25.10;;;1.30;66.20;;;;;;5078259;28;20224;-77
2020/12/05 07:27:56;;;;;;;86.97;23.92;;;1.30;66.50;;;;;;5078082;28;20605;-78
2020/12/05 07:30:22;;;;;;;88.50;23.73;;;1.30;66.40;;;;;;5078329;28;20741;-78
2020/12/05 07:32:50;;;;;;;95.32;22.25;;;1.30;66.90;;;;;;5078471;28;20231;-78
2020/12/05 07:35:18;;;;;;;90.22;21.85;;;1.30;66.70;;;;;;5077519;28;20238;-78
2020/12/05 07:37:45;;;;;;;92.00;24.65;;;1.30;67.20;;;;;;5077206;28;20221;-78
2020/12/05 07:40:12;;;;;;;90.57;23.48;;;1.30;67.30;;;;;;5077052;28;20205;-78
2020/12/05 07:42:39;;;;;;;84.93;23.65;;;1.30;67.20;;;;;;5075876;28;20286;-77
2020/12/05 07:45:06;;;;;;;91.15;24.17;;;1.30;67.30;;;;;;5074445;28;20674;-77
2020/12/05 07:47:33;;;;;;;88.70;21.02;;;1.30;67.80;;;;;;5077091;28;20275;-77
2020/12/05 07:50:01;;;;;;;89.22;22.42;;;1.30;67.50;;;;;;5073374;28;20610;-77
2020/12/05 07:52:29;;;;;;;88.32;23.48;;;1.40;67.70;;;;;;5072031;28;20232;-76
2020/12/05 07:54:56;;;;;;;100.63;24.52;;;1.40;68.30;;;;;;5072262;28;20207;-76
2020/12/05 07:57:27;;;;;;;93.50;23.38;;;1.40;68.30;;;;;;5073172;28;20691;-76
2020/12/05 08:00:01;;;;;;;87.45;23.65;;;1.40;68.30;;;;;;5072112;28;20288;-77
2020/12/05 08:02:44;;;;;;;90.78;22.13;;;1.50;68.60;;;;;;5075862;28;20211;-78
2020/12/05 08:05:25;;;;;;;89.68;24.20;;;1.50;68.80;;;;;;5079478;28;20316;-77
2020/12/05 08:07:58;;;;;;;96.38;27.02;;;1.50;69.10;;;;;;5079191;28;20844;-78
2020/12/05 08:10:28;;;;;;;89.13;24.70;;;1.50;69.20;;;;;;5078936;28;20296;-77
2020/12/05 08:13:20;;;;;;;95.00;26.85;;;1.60;69.80;;;;;;5078524;28;20205;-77
2020/12/05 08:15:51;;;;;;;88.35;22.70;;;1.60;70.00;;;;;;5079053;28;20205;-77
2020/12/05 08:18:20;;;;;;;89.40;24.25;;;1.60;70.20;;;;;;5078941;28;20297;-77
2020/12/05 08:20:47;;;;;;;94.93;23.23;;;1.70;70.60;;;;;;5078894;28;20264;-78
2020/12/05 08:23:25;;;;;;;87.35;21.15;;;1.70;70.90;;;;;;5079100;28;20298;-78
2020/12/05 08:25:53;;;;;;;94.85;23.80;;;1.70;71.40;;;;;;5080845;28;20207;-77
2020/12/05 08:28:21;;;;;;;91.00;23.25;;;1.80;71.60;;;;;;5086321;28;20232;-77
2020/12/05 08:30:48;;;;;;;87.40;23.08;;;1.80;71.90;;;;;;5079059;28;20213;-78
2020/12/05 08:33:16;;;;;;;91.20;23.90;;;1.90;72.50;;;;;;5078308;28;20268;-78
2020/12/05 08:35:42;;;;;;;86.40;21.92;;;1.90;72.90;;;;;;5078384;28;20235;-78
2020/12/05 08:38:12;;;;;;;88.40;24.67;;;2.00;73.00;;;;;;5077219;28;20321;-78
2020/12/05 08:40:40;;;;;;;95.00;23.92;;;2.00;73.70;;;;;;5076999;28;20235;-78
2020/12/05 08:43:06;;;;;;;89.53;23.13;;;2.00;73.80;;;;;;5076053;28;20213;-78
2020/12/05 08:45:38;;;;;;;92.90;22.65;;;2.10;74.10;;;;;;5076444;28;20212;-78
2020/12/05 08:48:15;;;;;;;98.20;26.00;;;2.20;74.60;;;;;;5076138;28;20240;-78
2020/12/05 08:50:42;;;;;;;87.85;23.10;;;2.20;74.90;;;;;;5075212;28;20208;-76
2020/12/05 08:53:10;;;;;;;90.70;23.38;;;2.30;75.40;;;;;;5074288;28;20300;-77
2020/12/05 08:55:36;;;;;;;87.70;21.52;;;2.30;75.70;;;;;;5074453;28;20572;-77
2020/12/05 08:58:06;;;;;;;86.35;22.73;;;2.30;76.10;;;;;;5075230;28;20304;-78
2020/12/05 09:00:34;;;;;;;90.05;24.50;;;2.30;76.30;;;;;;5074127;28;20205;-78
2020/12/05 09:03:02;;;;;;;91.05;22.42;;;2.40;76.70;;;;;;5073901;28;20291;-77
2020/12/05 09:05:28;;;;;;;87.75;22.88;;;2.40;76.90;;;;;;5073273;28;20223;-77
2020/12/05 09:07:56;;;;;;;85.38;22.77;;;2.40;77.00;;;;;;5072537;28;20225;-77
2020/12/05 09:10:23;;;;;;;85.75;21.52;;;2.40;77.50;;;;;;5072489;28;20209;-77
2020/12/05 09:12:50;;;;;;;89.55;21.10;;;2.40;77.70;;;;;;5072121;28;20266;-77
2020/12/05 09:15:18;;;;;;;84.80;20.15;;;2.40;77.80;;;;;;5072737;28;20294;-76
2020/12/05 09:17:45;;;;;;;83.80;21.98;;;2.50;78.20;;;;;;5071501;28;20235;-77
2020/12/05 09:20:13;;;;;;;88.45;22.63;;;2.50;78.70;;;;;;5071056;28;20295;-77
2020/12/05 09:22:45;;;;;;;86.65;23.30;;;2.50;79.00;;;;;;5071098;28;20575;-77
2020/12/05 09:25:12;;;;;;;90.45;22.05;;;2.60;79.20;;;;;;5071719;28;20212;-77
2020/12/05 09:27:40;;;;;;;88.32;21.90;;;2.60;79.50;;;;;;5071854;28;20232;-77
2020/12/05 09:30:10;;;;;;;94.68;25.40;;;2.70;79.60;;;;;;5071812;28;20221;-77
2020/12/05 09:32:42;;;;;;;94.80;25.27;;;2.80;80.40;;;;;;5072029;28;20808;-77
2020/12/05 09:35:10;;;;;;;95.18;25.05;;;2.90;81.50;;;;;;5072075;28;20296;-76
2020/12/05 09:37:37;;;;;;;87.90;23.73;;;3.00;81.70;;;;;;5072010;28;20235;-77
2020/12/05 09:40:04;;;;;;;97.80;23.85;;;3.10;82.30;;;;;;5072596;28;20424;-76
2020/12/05 09:42:30;;;;;;;95.85;25.02;;;3.20;82.90;;;;;;5073240;28;20205;-77
2020/12/05 09:44:56;;;;;;;100.72;25.02;;;3.20;83.70;;;;;;5074697;28;20809;-77
2020/12/05 09:47:23;;;;;;;109.50;25.77;;;3.30;84.30;;;;;;5075769;28;20765;-77
2020/12/05 09:49:50;;;;;;;99.82;24.48;;;3.30;84.50;;;;;;5075343;28;20311;-77
2020/12/05 09:52:16;;;;;;;104.18;24.55;;;3.40;84.70;;;;;;5076143;28;20259;-77
2020/12/05 09:54:43;;;;;;;88.85;23.00;;;3.50;85.10;;;;;;5075438;28;20300;-77
2020/12/05 09:57:09;;;;;;;88.75;21.33;;;3.50;85.00;;;;;;5075676;28;20316;-77
2020/12/05 09:59:36;;;;;;;97.28;23.70;;;3.50;85.10;;;;;;5075745;28;20204;-76
2020/12/05 10:02:03;;;;;;;88.50;21.98;;;3.50;85.20;;;;;;5076356;28;20304;-77
2020/12/05 10:04:30;;;;;;;99.90;22.73;;;3.50;85.10;;;;;;5076653;28;20279;-77
2020/12/05 10:06:57;;;;;;;88.20;23.33;;;3.40;84.90;;;;;;5076944;28;20205;-76
2020/12/05 10:09:24;;;;;;;112.18;32.35;;;3.40;85.20;;;;;;5074895;28;20903;-77
2020/12/05 10:11:50;;;;;;;99.95;26.20;;;3.40;84.60;;;;;;5075841;28;20209;-76
2020/12/05 10:14:17;;;;;;;89.00;23.25;;;3.40;84.80;;;;;;5076462;28;20292;-76
2020/12/05 10:16:43;;;;;;;95.97;26.02;;;3.30;84.70;;;;;;5076196;28;20725;-77
2020/12/05 10:19:10;;;;;;;97.55;24.27;;;3.30;84.50;;;;;;5076670;28;20247;-76
2020/12/05 10:21:36;;;;;;;87.72;21.58;;;3.30;84.80;;;;;;5076831;28;20213;-77
2020/12/05 10:24:04;;;;;;;88.38;22.75;;;3.30;84.40;;;;;;5075940;28;20735;-76
2020/12/05 10:26:30;;;;;;;106.57;23.60;;;3.30;84.50;;;;;;5076231;28;20635;-77
2020/12/05 10:28:57;;;;;;;89.57;23.13;;;3.40;84.90;;;;;;5077025;28;20709;-76
2020/12/05 10:31:23;;;;;;;91.93;22.60;;;3.40;84.80;;;;;;5075151;28;20208;-76
2020/12/05 10:33:49;;;;;;;93.45;24.05;;;3.40;84.90;;;;;;5074962;28;20209;-77
2020/12/05 10:36:19;;;;;;;91.80;23.10;;;3.40;84.90;;;;;;5074971;28;20295;-77
2020/12/05 10:38:46;;;;;;;91.78;22.65;;;3.40;84.90;;;;;;5075310;28;20627;-77
2020/12/05 10:41:13;;;;;;;104.57;23.35;;;3.40;84.90;;;;;;5074957;28;20615;-77
2020/12/05 10:43:40;;;;;;;84.95;21.88;;;3.40;84.90;;;;;;5075322;28;20254;-77
2020/12/05 10:46:06;;;;;;;94.20;21.60;;;3.40;85.00;;;;;;5075829;28;20209;-77
2020/12/05 10:48:33;;;;;;;90.32;21.92;;;3.40;84.90;;;;;;5075769;28;20324;-77
2020/12/05 10:50:59;;;;;;;84.60;21.55;;;3.40;84.90;;;;;;5074974;28;20201;-77
2020/12/05 10:53:26;;;;;;;82.45;21.08;;;3.40;84.90;;;;;;5075604;28;20205;-77
2020/12/05 10:55:52;;;;;;;82.15;20.15;;;3.40;84.90;;;;;;5075588;28;20295;-77
2020/12/05 10:58:20;;;;;;;87.30;22.55;;;3.40;84.90;;;;;;5075390;28;20320;-77
2020/12/05 11:00:47;;;;;;;88.38;22.60;;;3.40;84.90;;;;;;5075462;28;20209;-77
2020/12/05 11:03:14;;;;;;;84.82;22.92;;;3.30;84.90;;;;;;5076274;28;20221;-78
2020/12/05 11:05:40;;;;;;;89.65;23.42;;;3.30;84.90;;;;;;5076190;28;20294;-77
2020/12/05 11:08:06;;;;;;;100.10;24.83;;;3.30;84.80;;;;;;5075264;28;20266;-77
2020/12/05 11:10:33;;;;;;;91.43;24.13;;;3.30;84.90;;;;;;5075877;28;20209;-78
2020/12/05 11:12:59;;;;;;;95.13;24.20;;;3.30;84.80;;;;;;5075550;28;20584;-77
2020/12/05 11:15:26;;;;;;;93.32;23.60;;;3.30;84.80;;;;;;5075951;28;20672;-77
2020/12/05 11:17:53;;;;;;;84.80;22.75;;;3.30;84.80;;;;;;5075990;28;20233;-77
2020/12/05 11:20:21;;;;;;;92.35;23.30;;;3.30;84.80;;;;;;5076233;28;20261;-78
2020/12/05 11:22:48;;;;;;;93.22;25.20;;;3.30;84.90;;;;;;5075668;28;20274;-77
2020/12/05 11:25:14;;;;;;;97.80;24.70;;;3.40;85.00;;;;;;5075108;28;20688;-76
2020/12/05 11:27:41;;;;;;;92.43;24.20;;;3.50;85.30;;;;;;5075521;28;20647;-77
2020/12/05 11:30:07;;;;;;;97.53;23.73;;;3.60;85.80;;;;;;5074827;28;20286;-77
2020/12/05 11:32:37;;;;;;;100.13;26.88;;;3.70;86.50;;;;;;5075125;28;20270;-77
2020/12/05 11:35:04;;;;;;;99.10;25.05;;;3.80;86.40;;;;;;5076412;28;20244;-78
2020/12/05 11:37:30;;;;;;;96.00;25.33;;;3.80;86.60;;;;;;5074172;28;20316;-77
2020/12/05 11:39:56;;;;;;;89.55;24.00;;;3.90;86.50;;;;;;5074024;28;20284;-77
2020/12/05 11:42:23;;;;;;;91.10;23.38;;;3.90;86.70;;;;;;5073506;28;20240;-76
2020/12/05 11:44:49;;;;;;;115.47;26.27;;;3.90;87.00;;;;;;5073713;28;20209;-76
2020/12/05 11:47:16;;;;;;;120.70;29.48;;;3.90;86.80;;;;;;5073656;28;20776;-77
2020/12/05 11:49:44;;;;;;;103.72;26.13;;;3.90;86.80;;;;;;5073618;28;20311;-77
2020/12/05 11:52:10;;;;;;;106.93;28.52;;;3.90;87.00;;;;;;5073895;28;20205;-77
2020/12/05 11:54:36;;;;;;;100.68;27.05;;;3.90;86.80;;;;;;5073750;28;20605;-77
2020/12/05 11:57:03;;;;;;;106.97;27.10;;;3.90;86.90;;;;;;5074017;28;20294;-77
2020/12/05 11:59:29;;;;;;;99.63;26.63;;;3.90;86.50;;;;;;5073596;28;20209;-76
2020/12/05 12:01:56;;;;;;;87.20;24.23;;;3.90;86.60;;;;;;5073937;28;20228;-77
2020/12/05 12:04:22;;;;;;;94.00;27.15;;;3.90;86.50;;;;;;5073341;28;20725;-77
2020/12/05 12:06:49;;;;;;;94.80;24.80;;;3.90;86.40;;;;;;5072417;28;20668;-77
2020/12/05 12:09:16;;;;;;;94.57;24.52;;;3.90;86.70;;;;;;5073301;28;20224;-76
2020/12/05 12:11:42;;;;;;;90.63;22.75;;;3.90;86.60;;;;;;5073685;28;20209;-77
2020/12/05 12:14:09;;;;;;;90.45;23.88;;;3.90;86.40;;;;;;5073609;28;20628;-77
2020/12/05 12:16:35;;;;;;;106.38;27.83;;;3.90;86.60;;;;;;5074005;28;20237;-77
2020/12/05 12:19:01;;;;;;;110.32;29.05;;;3.90;86.90;;;;;;5073919;28;20643;-77
2020/12/05 12:21:28;;;;;;;95.20;26.75;;;4.00;87.00;;;;;;5073825;28;20281;-77
2020/12/05 12:23:55;;;;;;;108.50;28.00;;;4.00;87.00;;;;;;5074660;28;20215;-75
2020/12/05 12:26:28;;;;;;;97.80;27.83;;;4.00;87.00;;;;;;5074727;28;20243;-77
2020/12/05 12:28:54;;;;;;;102.45;27.67;;;4.00;87.50;;;;;;5073439;28;20225;-76
2020/12/05 12:31:21;;;;;;;99.35;26.85;;;4.10;87.30;;;;;;5076853;28;20231;-76
2020/12/05 12:33:47;;;;;;;102.97;29.05;;;4.10;87.40;;;;;;5077355;28;20216;-77
2020/12/05 12:36:16;;;;;;;99.05;27.80;;;4.20;87.60;;;;;;5096062;22;20711;-69
2020/12/05 12:38:42;;;;;;;93.68;24.20;;;4.20;87.60;;;;;;5070759;28;20740;-72
2020/12/05 12:41:13;;;;;;;100.30;26.38;;;4.20;87.10;;;;;;5070992;28;20205;-71
2020/12/05 12:43:39;;;;;;;112.35;33.85;;;4.20;87.10;;;;;;5071332;28;20209;-70
2020/12/05 12:46:05;;;;;;;102.75;28.45;;;4.20;86.70;;;;;;5071256;28;20264;-70